sensor_id;sensor_type;location;lat;lon;timestamp;P1;durP1;ratioP1;P2;durP2;ratioP2
21505;SDS011;10914;48.886;9.394;2023-08-20T00:01:22;49.67;;;46.42;;
21505;SDS011;10914;48.886;9.394;2023-08-20T00:03:49;64.75;;;60.95;;
21505;SDS011;10914;48.886;9.394;2023-08-20T00:06:14;43.60;;;40.65;;
21505;SDS011;10914;48.886;9.394;2023-08-20T00:08:40;42.20;;;39.05;;
21505;SDS011;10914;48.886;9.394;2023-08-20T00:11:05;47.17;;;43.97;;
21505;SDS011;10914;48.886;9.394;2023-08-20T00:13:30;47.17;;;44.08;;
21505;SDS011;10914;48.886;9.394;2023-08-20T00:15:56;41.83;;;38.60;;
21505;SDS011;10914;48.886;9.394;2023-08-20T00:18:21;35.38;;;32.97;;
21505;SDS011;10914;48.886;9.394;2023-08-20T00:20:46;35.75;;;33.15;;
21505;SDS011;10914;48.886;9.394;2023-08-20T00:23:12;36.15;;;33.63;;
21505;SDS011;10914;48.886;9.394;2023-08-20T00:25:37;36.30;;;33.60;;
21505;SDS011;10914;48.886;9.394;2023-08-20T00:28:02;34.78;;;32.00;;
21505;SDS011;10914;48.886;9.394;2023-08-20T00:30:28;35.78;;;32.97;;
21505;SDS011;10914;48.886;9.394;2023-08-20T00:32:53;34.37;;;31.97;;
21505;SDS011;10914;48.886;9.394;2023-08-20T00:35:20;34.60;;;32.20;;
21505;SDS011;10914;48.886;9.394;2023-08-20T00:37:46;34.78;;;31.90;;
21505;SDS011;10914;48.886;9.394;2023-08-20T00:40:11;36.67;;;33.80;;
21505;SDS011;10914;48.886;9.394;2023-08-20T00:42:36;38.88;;;35.97;;
21505;SDS011;10914;48.886;9.394;2023-08-20T00:45:01;38.75;;;36.10;;
21505;SDS011;10914;48.886;9.394;2023-08-20T00:47:28;34.90;;;32.47;;
21505;SDS011;10914;48.886;9.394;2023-08-20T00:49:53;39.30;;;36.50;;
21505;SDS011;10914;48.886;9.394;2023-08-20T00:52:19;39.73;;;36.93;;
21505;SDS011;10914;48.886;9.394;2023-08-20T00:54:45;38.38;;;35.67;;
21505;SDS011;10914;48.886;9.394;2023-08-20T00:57:13;41.38;;;38.28;;
21505;SDS011;10914;48.886;9.394;2023-08-20T00:59:38;40.28;;;37.33;;
21505;SDS011;10914;48.886;9.394;2023-08-20T01:02:03;39.45;;;36.63;;
21505;SDS011;10914;48.886;9.394;2023-08-20T01:04:29;39.95;;;37.15;;
21505;SDS011;10914;48.886;9.394;2023-08-20T01:07:14;42.78;;;39.67;;
21505;SDS011;10914;48.886;9.394;2023-08-20T01:12:06;37.67;;;34.97;;
21505;SDS011;10914;48.886;9.394;2023-08-20T01:17:24;36.75;;;33.88;;
21505;SDS011;10914;48.886;9.394;2023-08-20T01:19:49;35.27;;;32.67;;
21505;SDS011;10914;48.886;9.394;2023-08-20T01:22:21;39.60;;;36.88;;
21505;SDS011;10914;48.886;9.394;2023-08-20T01:27:35;35.80;;;32.92;;
21505;SDS011;10914;48.886;9.394;2023-08-20T01:30:06;38.03;;;35.13;;
21505;SDS011;10914;48.886;9.394;2023-08-20T01:32:31;43.42;;;40.28;;
21505;SDS011;10914;48.886;9.394;2023-08-20T01:34:57;58.95;;;55.17;;
21505;SDS011;10914;48.886;9.394;2023-08-20T01:37:22;68.50;;;64.43;;
21505;SDS011;10914;48.886;9.394;2023-08-20T01:39:47;66.57;;;62.70;;
21505;SDS011;10914;48.886;9.394;2023-08-20T01:42:13;63.23;;;59.40;;
21505;SDS011;10914;48.886;9.394;2023-08-20T01:44:38;81.67;;;77.00;;
21505;SDS011;10914;48.886;9.394;2023-08-20T01:47:03;75.93;;;71.25;;
21505;SDS011;10914;48.886;9.394;2023-08-20T01:49:28;73.93;;;69.57;;
21505;SDS011;10914;48.886;9.394;2023-08-20T01:51:53;57.05;;;53.47;;
21505;SDS011;10914;48.886;9.394;2023-08-20T01:54:18;76.22;;;71.55;;
21505;SDS011;10914;48.886;9.394;2023-08-20T01:56:44;90.95;;;85.78;;
21505;SDS011;10914;48.886;9.394;2023-08-20T01:59:09;97.10;;;91.80;;
21505;SDS011;10914;48.886;9.394;2023-08-20T02:01:34;92.60;;;87.35;;
21505;SDS011;10914;48.886;9.394;2023-08-20T02:04:00;75.20;;;70.63;;
21505;SDS011;10914;48.886;9.394;2023-08-20T02:06:26;76.70;;;72.00;;
21505;SDS011;10914;48.886;9.394;2023-08-20T02:08:51;83.23;;;78.50;;
21505;SDS011;10914;48.886;9.394;2023-08-20T02:11:16;91.80;;;86.63;;
21505;SDS011;10914;48.886;9.394;2023-08-20T02:13:41;88.57;;;83.47;;
21505;SDS011;10914;48.886;9.394;2023-08-20T02:16:06;83.57;;;78.57;;
21505;SDS011;10914;48.886;9.394;2023-08-20T02:18:32;89.83;;;84.53;;
21505;SDS011;10914;48.886;9.394;2023-08-20T02:20:57;85.77;;;81.00;;
21505;SDS011;10914;48.886;9.394;2023-08-20T02:23:22;103.82;;;98.30;;
21505;SDS011;10914;48.886;9.394;2023-08-20T02:25:47;97.88;;;92.57;;
21505;SDS011;10914;48.886;9.394;2023-08-20T02:28:13;69.85;;;65.45;;
21505;SDS011;10914;48.886;9.394;2023-08-20T02:30:45;107.27;;;101.10;;
21505;SDS011;10914;48.886;9.394;2023-08-20T02:33:10;80.20;;;75.57;;
21505;SDS011;10914;48.886;9.394;2023-08-20T02:35:36;79.97;;;75.07;;
21505;SDS011;10914;48.886;9.394;2023-08-20T02:38:01;76.90;;;72.40;;
21505;SDS011;10914;48.886;9.394;2023-08-20T02:40:26;86.83;;;81.93;;
21505;SDS011;10914;48.886;9.394;2023-08-20T02:42:52;79.30;;;74.57;;
21505;SDS011;10914;48.886;9.394;2023-08-20T02:45:17;87.60;;;82.37;;
21505;SDS011;10914;48.886;9.394;2023-08-20T02:47:42;77.65;;;72.85;;
21505;SDS011;10914;48.886;9.394;2023-08-20T02:50:07;71.32;;;67.05;;
21505;SDS011;10914;48.886;9.394;2023-08-20T02:52:33;75.03;;;70.68;;
21505;SDS011;10914;48.886;9.394;2023-08-20T02:54:58;56.23;;;52.73;;
21505;SDS011;10914;48.886;9.394;2023-08-20T02:57:23;62.65;;;58.72;;
21505;SDS011;10914;48.886;9.394;2023-08-20T02:59:48;66.72;;;62.60;;
21505;SDS011;10914;48.886;9.394;2023-08-20T03:02:13;70.70;;;66.72;;
21505;SDS011;10914;48.886;9.394;2023-08-20T03:04:38;56.38;;;52.85;;
21505;SDS011;10914;48.886;9.394;2023-08-20T03:07:03;73.13;;;68.68;;
21505;SDS011;10914;48.886;9.394;2023-08-20T03:09:29;74.80;;;70.18;;
21505;SDS011;10914;48.886;9.394;2023-08-20T03:11:54;102.53;;;96.90;;
21505;SDS011;10914;48.886;9.394;2023-08-20T03:14:19;129.97;;;123.37;;
21505;SDS011;10914;48.886;9.394;2023-08-20T03:16:45;142.40;;;135.17;;
21505;SDS011;10914;48.886;9.394;2023-08-20T03:19:10;168.30;;;159.80;;
21505;SDS011;10914;48.886;9.394;2023-08-20T03:21:35;178.63;;;169.07;;
21505;SDS011;10914;48.886;9.394;2023-08-20T03:24:00;158.03;;;149.87;;
21505;SDS011;10914;48.886;9.394;2023-08-20T03:26:25;132.73;;;125.57;;
21505;SDS011;10914;48.886;9.394;2023-08-20T03:28:50;115.38;;;109.15;;
21505;SDS011;10914;48.886;9.394;2023-08-20T03:31:16;90.97;;;85.80;;
21505;SDS011;10914;48.886;9.394;2023-08-20T03:33:41;116.87;;;110.47;;
21505;SDS011;10914;48.886;9.394;2023-08-20T03:36:06;119.43;;;113.07;;
21505;SDS011;10914;48.886;9.394;2023-08-20T03:38:31;169.77;;;161.20;;
21505;SDS011;10914;48.886;9.394;2023-08-20T03:40:57;128.60;;;121.63;;
21505;SDS011;10914;48.886;9.394;2023-08-20T03:43:22;127.05;;;120.32;;
21505;SDS011;10914;48.886;9.394;2023-08-20T03:45:51;218.50;;;207.77;;
21505;SDS011;10914;48.886;9.394;2023-08-20T03:48:16;219.38;;;208.57;;
21505;SDS011;10914;48.886;9.394;2023-08-20T03:50:41;170.43;;;161.80;;
21505;SDS011;10914;48.886;9.394;2023-08-20T03:53:06;162.53;;;154.30;;
21505;SDS011;10914;48.886;9.394;2023-08-20T03:55:31;142.60;;;135.17;;
21505;SDS011;10914;48.886;9.394;2023-08-20T03:57:57;111.60;;;105.50;;
21505;SDS011;10914;48.886;9.394;2023-08-20T04:00:22;91.67;;;86.37;;
21505;SDS011;10914;48.886;9.394;2023-08-20T04:02:47;116.93;;;110.67;;
21505;SDS011;10914;48.886;9.394;2023-08-20T04:05:12;116.60;;;110.53;;
21505;SDS011;10914;48.886;9.394;2023-08-20T04:07:37;163.00;;;154.83;;
21505;SDS011;10914;48.886;9.394;2023-08-20T04:10:02;149.13;;;141.73;;
21505;SDS011;10914;48.886;9.394;2023-08-20T04:12:28;155.32;;;147.45;;
21505;SDS011;10914;48.886;9.394;2023-08-20T04:14:53;162.38;;;153.68;;
21505;SDS011;10914;48.886;9.394;2023-08-20T04:17:18;152.67;;;144.77;;
21505;SDS011;10914;48.886;9.394;2023-08-20T04:19:44;141.95;;;134.57;;
21505;SDS011;10914;48.886;9.394;2023-08-20T04:22:09;116.13;;;109.85;;
21505;SDS011;10914;48.886;9.394;2023-08-20T04:24:34;160.33;;;152.10;;
21505;SDS011;10914;48.886;9.394;2023-08-20T04:26:59;135.20;;;127.83;;
21505;SDS011;10914;48.886;9.394;2023-08-20T04:29:24;141.98;;;134.35;;
21505;SDS011;10914;48.886;9.394;2023-08-20T04:31:50;124.10;;;117.40;;
21505;SDS011;10914;48.886;9.394;2023-08-20T04:34:15;118.00;;;111.80;;
21505;SDS011;10914;48.886;9.394;2023-08-20T04:36:40;101.50;;;95.90;;
21505;SDS011;10914;48.886;9.394;2023-08-20T04:39:05;70.70;;;66.40;;
21505;SDS011;10914;48.886;9.394;2023-08-20T04:41:30;81.07;;;76.00;;
21505;SDS011;10914;48.886;9.394;2023-08-20T04:43:55;112.43;;;106.13;;
21505;SDS011;10914;48.886;9.394;2023-08-20T04:46:21;63.53;;;59.63;;
21505;SDS011;10914;48.886;9.394;2023-08-20T04:48:46;78.43;;;73.77;;
21505;SDS011;10914;48.886;9.394;2023-08-20T04:51:11;108.13;;;102.20;;
21505;SDS011;10914;48.886;9.394;2023-08-20T04:53:36;87.30;;;82.10;;
21505;SDS011;10914;48.886;9.394;2023-08-20T04:56:01;72.33;;;67.80;;
21505;SDS011;10914;48.886;9.394;2023-08-20T04:58:27;99.45;;;93.78;;
21505;SDS011;10914;48.886;9.394;2023-08-20T05:00:52;91.00;;;85.60;;
21505;SDS011;10914;48.886;9.394;2023-08-20T05:03:17;81.97;;;77.20;;
21505;SDS011;10914;48.886;9.394;2023-08-20T05:05:42;86.68;;;81.47;;
21505;SDS011;10914;48.886;9.394;2023-08-20T05:08:12;60.38;;;56.60;;
21505;SDS011;10914;48.886;9.394;2023-08-20T05:10:38;56.97;;;53.33;;
21505;SDS011;10914;48.886;9.394;2023-08-20T05:13:05;62.33;;;58.20;;
21505;SDS011;10914;48.886;9.394;2023-08-20T05:15:30;70.63;;;66.53;;
21505;SDS011;10914;48.886;9.394;2023-08-20T05:17:55;101.23;;;95.60;;
21505;SDS011;10914;48.886;9.394;2023-08-20T05:20:20;113.33;;;107.33;;
21505;SDS011;10914;48.886;9.394;2023-08-20T05:22:45;107.15;;;101.35;;
21505;SDS011;10914;48.886;9.394;2023-08-20T05:25:10;121.72;;;114.82;;
21505;SDS011;10914;48.886;9.394;2023-08-20T05:27:36;128.60;;;121.60;;
21505;SDS011;10914;48.886;9.394;2023-08-20T05:30:01;105.57;;;99.82;;
21505;SDS011;10914;48.886;9.394;2023-08-20T05:32:26;124.50;;;117.83;;
21505;SDS011;10914;48.886;9.394;2023-08-20T05:34:51;99.80;;;94.30;;
21505;SDS011;10914;48.886;9.394;2023-08-20T05:37:16;69.47;;;65.25;;
21505;SDS011;10914;48.886;9.394;2023-08-20T05:39:42;51.57;;;48.07;;
21505;SDS011;10914;48.886;9.394;2023-08-20T05:42:07;53.90;;;50.42;;
21505;SDS011;10914;48.886;9.394;2023-08-20T05:44:33;50.23;;;47.03;;
21505;SDS011;10914;48.886;9.394;2023-08-20T05:46:58;44.33;;;41.47;;
21505;SDS011;10914;48.886;9.394;2023-08-20T05:49:23;36.45;;;33.95;;
21505;SDS011;10914;48.886;9.394;2023-08-20T05:51:48;37.63;;;34.70;;
21505;SDS011;10914;48.886;9.394;2023-08-20T05:54:14;38.05;;;35.45;;
21505;SDS011;10914;48.886;9.394;2023-08-20T05:56:39;39.80;;;37.10;;
21505;SDS011;10914;48.886;9.394;2023-08-20T05:59:04;39.07;;;36.37;;
21505;SDS011;10914;48.886;9.394;2023-08-20T06:01:29;37.23;;;34.47;;
21505;SDS011;10914;48.886;9.394;2023-08-20T06:03:54;40.00;;;37.03;;
21505;SDS011;10914;48.886;9.394;2023-08-20T06:06:20;40.23;;;37.43;;
21505;SDS011;10914;48.886;9.394;2023-08-20T06:08:46;37.80;;;35.00;;
21505;SDS011;10914;48.886;9.394;2023-08-20T06:11:11;37.65;;;35.00;;
21505;SDS011;10914;48.886;9.394;2023-08-20T06:13:36;35.73;;;33.17;;
21505;SDS011;10914;48.886;9.394;2023-08-20T06:16:01;48.13;;;45.00;;
21505;SDS011;10914;48.886;9.394;2023-08-20T06:18:26;34.33;;;31.77;;
21505;SDS011;10914;48.886;9.394;2023-08-20T06:20:52;36.50;;;34.10;;
21505;SDS011;10914;48.886;9.394;2023-08-20T06:23:17;36.67;;;34.07;;
21505;SDS011;10914;48.886;9.394;2023-08-20T06:25:42;35.83;;;33.27;;
21505;SDS011;10914;48.886;9.394;2023-08-20T06:28:08;35.63;;;33.13;;
21505;SDS011;10914;48.886;9.394;2023-08-20T06:30:33;37.60;;;34.63;;
21505;SDS011;10914;48.886;9.394;2023-08-20T06:32:58;34.57;;;32.27;;
21505;SDS011;10914;48.886;9.394;2023-08-20T06:35:24;33.93;;;31.47;;
21505;SDS011;10914;48.886;9.394;2023-08-20T06:37:49;36.50;;;34.08;;
21505;SDS011;10914;48.886;9.394;2023-08-20T06:40:14;39.63;;;37.00;;
21505;SDS011;10914;48.886;9.394;2023-08-20T06:42:39;47.57;;;44.53;;
21505;SDS011;10914;48.886;9.394;2023-08-20T06:45:04;45.13;;;42.13;;
21505;SDS011;10914;48.886;9.394;2023-08-20T06:47:31;50.17;;;46.97;;
21505;SDS011;10914;48.886;9.394;2023-08-20T06:49:56;49.33;;;46.13;;
21505;SDS011;10914;48.886;9.394;2023-08-20T06:52:21;35.67;;;33.08;;
21505;SDS011;10914;48.886;9.394;2023-08-20T06:54:46;36.70;;;34.00;;
21505;SDS011;10914;48.886;9.394;2023-08-20T06:57:12;36.75;;;34.15;;
21505;SDS011;10914;48.886;9.394;2023-08-20T06:59:37;37.80;;;35.07;;
21505;SDS011;10914;48.886;9.394;2023-08-20T07:02:02;40.47;;;37.37;;
21505;SDS011;10914;48.886;9.394;2023-08-20T07:04:28;37.33;;;34.58;;
21505;SDS011;10914;48.886;9.394;2023-08-20T07:06:53;35.73;;;32.90;;
21505;SDS011;10914;48.886;9.394;2023-08-20T07:09:18;39.53;;;36.63;;
21505;SDS011;10914;48.886;9.394;2023-08-20T07:11:43;35.53;;;32.90;;
21505;SDS011;10914;48.886;9.394;2023-08-20T07:14:09;36.17;;;33.65;;
21505;SDS011;10914;48.886;9.394;2023-08-20T07:16:34;42.87;;;39.93;;
21505;SDS011;10914;48.886;9.394;2023-08-20T07:18:59;40.83;;;37.97;;
21505;SDS011;10914;48.886;9.394;2023-08-20T07:21:24;39.50;;;36.77;;
21505;SDS011;10914;48.886;9.394;2023-08-20T07:23:49;46.50;;;43.10;;
21505;SDS011;10914;48.886;9.394;2023-08-20T07:26:14;42.63;;;39.23;;
21505;SDS011;10914;48.886;9.394;2023-08-20T07:28:40;36.67;;;33.97;;
21505;SDS011;10914;48.886;9.394;2023-08-20T07:31:21;33.90;;;31.40;;
21505;SDS011;10914;48.886;9.394;2023-08-20T07:33:47;33.70;;;31.23;;
21505;SDS011;10914;48.886;9.394;2023-08-20T07:36:12;35.92;;;33.03;;
21505;SDS011;10914;48.886;9.394;2023-08-20T07:38:38;34.75;;;32.25;;
21505;SDS011;10914;48.886;9.394;2023-08-20T07:41:06;34.78;;;32.17;;
21505;SDS011;10914;48.886;9.394;2023-08-20T07:43:31;34.47;;;32.05;;
21505;SDS011;10914;48.886;9.394;2023-08-20T07:45:56;37.78;;;35.05;;
21505;SDS011;10914;48.886;9.394;2023-08-20T07:48:22;40.90;;;37.83;;
21505;SDS011;10914;48.886;9.394;2023-08-20T07:50:47;37.25;;;34.65;;
21505;SDS011;10914;48.886;9.394;2023-08-20T07:53:12;34.77;;;31.87;;
21505;SDS011;10914;48.886;9.394;2023-08-20T07:55:37;35.20;;;32.90;;
21505;SDS011;10914;48.886;9.394;2023-08-20T07:58:02;39.50;;;36.80;;
21505;SDS011;10914;48.886;9.394;2023-08-20T08:00:27;34.23;;;31.73;;
21505;SDS011;10914;48.886;9.394;2023-08-20T08:02:53;33.93;;;31.33;;
21505;SDS011;10914;48.886;9.394;2023-08-20T08:05:18;33.23;;;30.67;;
21505;SDS011;10914;48.886;9.394;2023-08-20T08:07:43;34.03;;;31.47;;
21505;SDS011;10914;48.886;9.394;2023-08-20T08:10:08;35.35;;;32.75;;
21505;SDS011;10914;48.886;9.394;2023-08-20T08:12:33;36.45;;;33.55;;
21505;SDS011;10914;48.886;9.394;2023-08-20T08:14:59;32.55;;;30.27;;
21505;SDS011;10914;48.886;9.394;2023-08-20T08:17:24;33.40;;;30.90;;
21505;SDS011;10914;48.886;9.394;2023-08-20T08:19:49;32.40;;;29.77;;
21505;SDS011;10914;48.886;9.394;2023-08-20T08:22:14;31.48;;;29.38;;
21505;SDS011;10914;48.886;9.394;2023-08-20T08:24:39;33.55;;;31.15;;
21505;SDS011;10914;48.886;9.394;2023-08-20T08:27:06;32.80;;;30.30;;
21505;SDS011;10914;48.886;9.394;2023-08-20T08:29:32;35.97;;;33.15;;
21505;SDS011;10914;48.886;9.394;2023-08-20T08:31:57;32.50;;;30.20;;
21505;SDS011;10914;48.886;9.394;2023-08-20T08:34:22;32.90;;;30.63;;
21505;SDS011;10914;48.886;9.394;2023-08-20T08:36:47;33.00;;;30.67;;
21505;SDS011;10914;48.886;9.394;2023-08-20T08:39:13;30.67;;;28.48;;
21505;SDS011;10914;48.886;9.394;2023-08-20T08:41:38;32.83;;;30.50;;
21505;SDS011;10914;48.886;9.394;2023-08-20T08:44:04;35.00;;;32.40;;
21505;SDS011;10914;48.886;9.394;2023-08-20T08:46:31;32.47;;;30.20;;
21505;SDS011;10914;48.886;9.394;2023-08-20T08:48:57;34.50;;;31.63;;
21505;SDS011;10914;48.886;9.394;2023-08-20T08:51:22;34.95;;;32.38;;
21505;SDS011;10914;48.886;9.394;2023-08-20T08:53:48;33.83;;;31.27;;
21505;SDS011;10914;48.886;9.394;2023-08-20T08:56:14;32.22;;;29.92;;
21505;SDS011;10914;48.886;9.394;2023-08-20T08:58:39;34.00;;;31.53;;
21505;SDS011;10914;48.886;9.394;2023-08-20T09:01:04;34.63;;;32.27;;
21505;SDS011;10914;48.886;9.394;2023-08-20T09:03:29;33.13;;;30.63;;
21505;SDS011;10914;48.886;9.394;2023-08-20T09:05:55;32.00;;;29.73;;
21505;SDS011;10914;48.886;9.394;2023-08-20T09:08:22;34.15;;;31.95;;
21505;SDS011;10914;48.886;9.394;2023-08-20T09:10:51;33.85;;;31.45;;
21505;SDS011;10914;48.886;9.394;2023-08-20T09:13:16;32.08;;;29.95;;
21505;SDS011;10914;48.886;9.394;2023-08-20T09:15:42;34.10;;;31.27;;
21505;SDS011;10914;48.886;9.394;2023-08-20T09:18:09;32.67;;;30.30;;
21505;SDS011;10914;48.886;9.394;2023-08-20T09:20:37;33.70;;;31.17;;
21505;SDS011;10914;48.886;9.394;2023-08-20T09:23:02;33.25;;;30.85;;
21505;SDS011;10914;48.886;9.394;2023-08-20T09:25:28;32.20;;;30.00;;
21505;SDS011;10914;48.886;9.394;2023-08-20T09:27:53;30.97;;;28.87;;
21505;SDS011;10914;48.886;9.394;2023-08-20T09:30:19;33.92;;;31.27;;
21505;SDS011;10914;48.886;9.394;2023-08-20T09:32:45;34.30;;;31.90;;
21505;SDS011;10914;48.886;9.394;2023-08-20T09:35:17;35.00;;;32.37;;
21505;SDS011;10914;48.886;9.394;2023-08-20T09:37:43;32.17;;;29.70;;
21505;SDS011;10914;48.886;9.394;2023-08-20T09:40:08;34.30;;;31.85;;
21505;SDS011;10914;48.886;9.394;2023-08-20T09:42:33;33.67;;;31.30;;
21505;SDS011;10914;48.886;9.394;2023-08-20T09:44:59;31.93;;;29.63;;
21505;SDS011;10914;48.886;9.394;2023-08-20T09:47:25;32.75;;;30.58;;
21505;SDS011;10914;48.886;9.394;2023-08-20T09:49:51;30.75;;;28.63;;
21505;SDS011;10914;48.886;9.394;2023-08-20T09:52:25;30.20;;;27.85;;
21505;SDS011;10914;48.886;9.394;2023-08-20T09:54:55;32.30;;;30.13;;
21505;SDS011;10914;48.886;9.394;2023-08-20T09:57:34;32.70;;;30.60;;
21505;SDS011;10914;48.886;9.394;2023-08-20T10:00:00;36.80;;;34.42;;
21505;SDS011;10914;48.886;9.394;2023-08-20T10:02:25;34.25;;;31.95;;
21505;SDS011;10914;48.886;9.394;2023-08-20T10:04:51;36.15;;;33.72;;
21505;SDS011;10914;48.886;9.394;2023-08-20T10:07:17;32.55;;;30.50;;
21505;SDS011;10914;48.886;9.394;2023-08-20T10:09:42;33.35;;;31.13;;
21505;SDS011;10914;48.886;9.394;2023-08-20T10:12:11;35.15;;;32.72;;
21505;SDS011;10914;48.886;9.394;2023-08-20T10:14:36;33.22;;;31.13;;
21505;SDS011;10914;48.886;9.394;2023-08-20T10:17:05;30.87;;;28.60;;
21505;SDS011;10914;48.886;9.394;2023-08-20T10:19:31;32.00;;;29.83;;
21505;SDS011;10914;48.886;9.394;2023-08-20T10:21:56;31.40;;;29.30;;
21505;SDS011;10914;48.886;9.394;2023-08-20T10:24:22;30.60;;;27.90;;
21505;SDS011;10914;48.886;9.394;2023-08-20T10:26:48;32.67;;;30.42;;
21505;SDS011;10914;48.886;9.394;2023-08-20T10:31:57;30.13;;;27.73;;
21505;SDS011;10914;48.886;9.394;2023-08-20T10:34:32;30.00;;;27.70;;
21505;SDS011;10914;48.886;9.394;2023-08-20T10:37:00;30.33;;;28.13;;
21505;SDS011;10914;48.886;9.394;2023-08-20T10:39:26;30.30;;;28.20;;
21505;SDS011;10914;48.886;9.394;2023-08-20T10:42:07;32.08;;;29.73;;
21505;SDS011;10914;48.886;9.394;2023-08-20T10:47:16;28.42;;;26.38;;
21505;SDS011;10914;48.886;9.394;2023-08-20T10:49:42;32.00;;;29.90;;
21505;SDS011;10914;48.886;9.394;2023-08-20T10:52:07;27.00;;;25.10;;
21505;SDS011;10914;48.886;9.394;2023-08-20T10:54:32;28.00;;;26.30;;
21505;SDS011;10914;48.886;9.394;2023-08-20T10:56:57;26.98;;;25.00;;
21505;SDS011;10914;48.886;9.394;2023-08-20T10:59:26;28.27;;;26.40;;
21505;SDS011;10914;48.886;9.394;2023-08-20T11:01:52;26.90;;;24.80;;
21505;SDS011;10914;48.886;9.394;2023-08-20T11:04:19;27.42;;;25.30;;
21505;SDS011;10914;48.886;9.394;2023-08-20T11:06:45;44.55;;;41.92;;
21505;SDS011;10914;48.886;9.394;2023-08-20T11:09:10;41.45;;;38.95;;
21505;SDS011;10914;48.886;9.394;2023-08-20T11:11:37;30.15;;;28.15;;
21505;SDS011;10914;48.886;9.394;2023-08-20T11:14:06;34.00;;;31.85;;
21505;SDS011;10914;48.886;9.394;2023-08-20T11:16:34;30.80;;;28.70;;
21505;SDS011;10914;48.886;9.394;2023-08-20T11:19:00;30.13;;;28.30;;
21505;SDS011;10914;48.886;9.394;2023-08-20T11:21:25;27.57;;;25.77;;
21505;SDS011;10914;48.886;9.394;2023-08-20T11:23:53;25.92;;;24.33;;
21505;SDS011;10914;48.886;9.394;2023-08-20T11:26:20;26.50;;;24.83;;
21505;SDS011;10914;48.886;9.394;2023-08-20T11:28:45;25.53;;;23.93;;
21505;SDS011;10914;48.886;9.394;2023-08-20T11:31:11;24.08;;;22.58;;
21505;SDS011;10914;48.886;9.394;2023-08-20T11:33:36;25.57;;;23.53;;
21505;SDS011;10914;48.886;9.394;2023-08-20T11:36:02;23.97;;;22.37;;
21505;SDS011;10914;48.886;9.394;2023-08-20T11:38:27;24.83;;;23.10;;
21505;SDS011;10914;48.886;9.394;2023-08-20T11:40:53;25.10;;;23.33;;
21505;SDS011;10914;48.886;9.394;2023-08-20T11:43:18;25.23;;;23.63;;
21505;SDS011;10914;48.886;9.394;2023-08-20T11:45:44;25.00;;;23.43;;
21505;SDS011;10914;48.886;9.394;2023-08-20T11:48:09;24.45;;;22.50;;
21505;SDS011;10914;48.886;9.394;2023-08-20T11:50:34;22.67;;;20.97;;
21505;SDS011;10914;48.886;9.394;2023-08-20T11:53:02;20.95;;;19.65;;
21505;SDS011;10914;48.886;9.394;2023-08-20T11:55:29;22.20;;;20.73;;
21505;SDS011;10914;48.886;9.394;2023-08-20T11:57:54;22.35;;;20.80;;
21505;SDS011;10914;48.886;9.394;2023-08-20T12:00:26;21.90;;;20.50;;
21505;SDS011;10914;48.886;9.394;2023-08-20T12:02:52;22.73;;;21.23;;
21505;SDS011;10914;48.886;9.394;2023-08-20T12:05:18;22.63;;;21.23;;
21505;SDS011;10914;48.886;9.394;2023-08-20T12:07:54;22.33;;;20.65;;
21505;SDS011;10914;48.886;9.394;2023-08-20T12:10:19;23.05;;;21.63;;
21505;SDS011;10914;48.886;9.394;2023-08-20T12:12:47;20.75;;;19.45;;
21505;SDS011;10914;48.886;9.394;2023-08-20T12:15:12;21.80;;;20.50;;
21505;SDS011;10914;48.886;9.394;2023-08-20T12:17:37;20.90;;;19.52;;
21505;SDS011;10914;48.886;9.394;2023-08-20T12:20:03;21.17;;;19.77;;
21505;SDS011;10914;48.886;9.394;2023-08-20T12:22:35;22.00;;;20.55;;
21505;SDS011;10914;48.886;9.394;2023-08-20T12:25:00;21.48;;;19.92;;
21505;SDS011;10914;48.886;9.394;2023-08-20T12:27:25;21.70;;;20.13;;
21505;SDS011;10914;48.886;9.394;2023-08-20T12:29:52;21.85;;;20.45;;
21505;SDS011;10914;48.886;9.394;2023-08-20T12:32:17;21.17;;;19.97;;
21505;SDS011;10914;48.886;9.394;2023-08-20T12:34:43;22.80;;;21.27;;
21505;SDS011;10914;48.886;9.394;2023-08-20T12:37:08;23.02;;;21.33;;
21505;SDS011;10914;48.886;9.394;2023-08-20T12:39:34;22.30;;;20.90;;
21505;SDS011;10914;48.886;9.394;2023-08-20T12:41:59;21.83;;;20.40;;
21505;SDS011;10914;48.886;9.394;2023-08-20T12:44:24;22.97;;;21.40;;
21505;SDS011;10914;48.886;9.394;2023-08-20T12:46:49;22.90;;;21.57;;
21505;SDS011;10914;48.886;9.394;2023-08-20T12:49:14;21.25;;;20.05;;
21505;SDS011;10914;48.886;9.394;2023-08-20T12:51:40;21.33;;;20.13;;
21505;SDS011;10914;48.886;9.394;2023-08-20T12:54:05;22.03;;;20.70;;
21505;SDS011;10914;48.886;9.394;2023-08-20T12:56:30;22.40;;;20.60;;
21505;SDS011;10914;48.886;9.394;2023-08-20T12:58:55;21.37;;;20.00;;
21505;SDS011;10914;48.886;9.394;2023-08-20T13:01:20;22.03;;;20.63;;
21505;SDS011;10914;48.886;9.394;2023-08-20T13:03:45;20.57;;;19.37;;
21505;SDS011;10914;48.886;9.394;2023-08-20T13:06:11;19.67;;;18.27;;
21505;SDS011;10914;48.886;9.394;2023-08-20T13:08:36;20.08;;;18.77;;
21505;SDS011;10914;48.886;9.394;2023-08-20T13:11:01;20.15;;;18.70;;
21505;SDS011;10914;48.886;9.394;2023-08-20T13:13:28;20.25;;;18.85;;
21505;SDS011;10914;48.886;9.394;2023-08-20T13:15:57;21.02;;;19.58;;
21505;SDS011;10914;48.886;9.394;2023-08-20T13:18:22;20.83;;;19.43;;
21505;SDS011;10914;48.886;9.394;2023-08-20T13:20:50;20.20;;;18.90;;
21505;SDS011;10914;48.886;9.394;2023-08-20T13:23:15;20.00;;;18.50;;
21505;SDS011;10914;48.886;9.394;2023-08-20T13:25:40;19.80;;;18.50;;
21505;SDS011;10914;48.886;9.394;2023-08-20T13:28:05;19.87;;;18.50;;
21505;SDS011;10914;48.886;9.394;2023-08-20T13:30:30;21.70;;;20.40;;
21505;SDS011;10914;48.886;9.394;2023-08-20T13:32:58;21.70;;;20.40;;
21505;SDS011;10914;48.886;9.394;2023-08-20T13:35:23;20.67;;;19.30;;
21505;SDS011;10914;48.886;9.394;2023-08-20T13:37:48;20.73;;;19.20;;
21505;SDS011;10914;48.886;9.394;2023-08-20T13:40:14;21.10;;;19.70;;
21505;SDS011;10914;48.886;9.394;2023-08-20T13:42:39;21.33;;;19.93;;
21505;SDS011;10914;48.886;9.394;2023-08-20T13:45:04;20.83;;;19.67;;
21505;SDS011;10914;48.886;9.394;2023-08-20T13:47:29;20.90;;;19.63;;
21505;SDS011;10914;48.886;9.394;2023-08-20T13:49:54;21.23;;;19.83;;
21505;SDS011;10914;48.886;9.394;2023-08-20T13:52:20;21.17;;;19.83;;
21505;SDS011;10914;48.886;9.394;2023-08-20T13:54:45;21.15;;;19.67;;
21505;SDS011;10914;48.886;9.394;2023-08-20T13:57:10;21.27;;;19.83;;
21505;SDS011;10914;48.886;9.394;2023-08-20T13:59:36;21.73;;;20.23;;
21505;SDS011;10914;48.886;9.394;2023-08-20T14:02:01;22.27;;;20.88;;
21505;SDS011;10914;48.886;9.394;2023-08-20T14:04:27;21.65;;;20.05;;
21505;SDS011;10914;48.886;9.394;2023-08-20T14:06:52;21.00;;;19.60;;
21505;SDS011;10914;48.886;9.394;2023-08-20T14:09:17;21.08;;;19.73;;
21505;SDS011;10914;48.886;9.394;2023-08-20T14:11:43;21.75;;;20.45;;
21505;SDS011;10914;48.886;9.394;2023-08-20T14:14:08;22.23;;;20.73;;
21505;SDS011;10914;48.886;9.394;2023-08-20T14:16:34;22.00;;;20.30;;
21505;SDS011;10914;48.886;9.394;2023-08-20T14:18:59;21.43;;;20.13;;
21505;SDS011;10914;48.886;9.394;2023-08-20T14:21:24;22.07;;;20.53;;
21505;SDS011;10914;48.886;9.394;2023-08-20T14:23:49;20.97;;;19.60;;